Time;durP1;ratioP1;P1;durP2;ratioP2;P2;SDS_P1;SDS_P2;PMS_P1;PMS_P2;Temp;Humidity;BMP_temperature;BMP_pressure;BME280_temperature;BME280_humidity;BME280_pressure;Samples;Min_cycle;Max_cycle;Signal;HPM_P1;HPM_P2
2022/01/30 00:01:27;;;;;;;0.50;0.50;;;;;;;6.06;90.21;99680.59;5055404;28;20027;-70
2022/01/30 00:03:53;;;;;;;0.50;0.50;;;;;;;6.02;90.45;99674.53;5044680;28;20056;-70
2022/01/30 00:06:18;;;;;;;4.57;0.60;;;;;;;6.07;90.07;99677.19;5050081;28;20122;-70
2022/01/30 00:08:44;;;;;;;0.70;0.70;;;;;;;6.06;90.07;99671.16;5055490;28;20397;-71
2022/01/30 00:11:15;;;;;;;0.40;0.40;;;;;;;6.15;89.88;99670.44;5055206;28;20035;-71
2022/01/30 00:13:40;;;;;;;0.40;0.40;;;;;;;6.08;90.32;99684.91;5055338;28;20036;-71
2022/01/30 00:16:10;;;;;;;0.50;0.50;;;;;;;6.13;89.94;99679.81;5054938;28;20025;-70
2022/01/30 00:23:59;;;;;;;0.57;0.57;;;;;;;6.02;90.46;99678.81;5055192;28;20045;-70
2022/01/30 00:26:29;;;;;;;0.50;0.50;;;;;;;6.07;90.04;99667.75;5054901;28;20430;-70
2022/01/30 00:28:55;;;;;;;0.60;0.60;;;;;;;6.00;90.73;99665.09;5054787;28;20024;-70
2022/01/30 00:31:21;;;;;;;0.70;0.70;;;;;;;5.95;90.93;99664.13;5054979;28;20031;-70
2022/01/30 00:33:47;;;;;;;0.50;0.50;;;;;;;6.01;91.08;99659.09;5044993;28;20025;-70
2022/01/30 00:36:13;;;;;;;1.33;0.70;;;;;;;6.00;91.28;99659.94;5048649;28;20033;-70
2022/01/30 00:38:38;;;;;;;0.50;0.50;;;;;;;6.01;91.03;99651.38;5055077;28;20103;-70
2022/01/30 00:41:03;;;;;;;0.50;0.50;;;;;;;5.98;90.92;99653.88;5054714;28;20367;-70
2022/01/30 00:43:29;;;;;;;0.52;0.52;;;;;;;5.99;90.87;99653.03;5054533;28;20025;-70
2022/01/30 00:45:54;;;;;;;0.40;0.40;;;;;;;5.98;91.21;99646.16;5036584;28;20033;-70
2022/01/30 00:48:19;;;;;;;0.50;0.50;;;;;;;5.98;91.36;99651.31;5054516;28;20083;-71
2022/01/30 00:50:45;;;;;;;0.50;0.50;;;;;;;5.86;91.56;99646.84;5054653;28;20462;-70
2022/01/30 00:53:10;;;;;;;0.50;0.50;;;;;;;5.98;91.70;99656.47;5054525;28;20093;-70
2022/01/30 00:55:36;;;;;;;0.60;0.60;;;;;;;5.99;91.52;99653.03;5054280;28;20024;-73
2022/01/30 00:58:02;;;;;;;0.60;0.60;;;;;;;6.07;90.79;99666.88;5054321;28;20245;-73
2022/01/30 08:01:58;;;;;;;7.97;3.50;;;;;;;5.58;81.34;99939.44;5298654;22;20510;-71
2022/01/30 08:04:26;;;;;;;1.15;1.15;;;;;;;5.68;81.85;99946.50;5007029;28;20041;-71
2022/01/30 08:06:51;;;;;;;0.65;0.65;;;;;;;5.66;82.35;99949.91;5030375;28;20021;-71
2022/01/30 08:09:16;;;;;;;0.55;0.55;;;;;;;5.73;82.33;99933.75;5025030;28;20029;-70
2022/01/30 08:11:42;;;;;;;2.38;2.25;;;;;;;5.79;82.12;99933.88;5027241;28;20033;-71
2022/01/30 08:14:07;;;;;;;2.42;1.40;;;;;;;5.83;82.26;99925.38;5055420;28;20029;-71
2022/01/30 08:16:32;;;;;;;1.02;1.02;;;;;;;6.00;81.74;99927.47;5055575;28;20055;-71
2022/01/30 08:18:58;;;;;;;4.20;1.35;;;;;;;5.97;81.51;99932.53;5048061;28;20049;-71
2022/01/30 08:21:23;;;;;;;0.50;0.50;;;;;;;5.83;82.33;99932.22;5035076;28;20053;-71
2022/01/30 08:23:48;;;;;;;2.15;1.05;;;;;;;5.77;82.05;99927.84;5035369;28;20063;-71
2022/01/30 08:26:14;;;;;;;1.52;1.42;;;;;;;5.91;81.53;99922.97;5035172;28;20033;-71
2022/01/30 08:28:39;;;;;;;0.82;0.82;;;;;;;5.93;82.43;99927.31;5035161;28;20036;-70
2022/01/30 08:31:04;;;;;;;6.38;3.80;;;;;;;5.76;82.27;99923.53;5034258;28;20033;-71
2022/01/30 08:33:30;;;;;;;0.80;0.80;;;;;;;5.67;82.11;99933.63;5042692;28;20064;-70
2022/01/30 08:35:55;;;;;;;0.70;0.70;;;;;;;6.13;81.00;99929.41;5043107;28;20397;-71
2022/01/30 08:38:21;;;;;;;0.65;0.65;;;;;;;6.79;78.19;99923.69;5035011;28;20029;-71
2022/01/30 08:40:46;;;;;;;0.52;0.52;;;;;;;6.87;76.53;99927.25;5034905;28;20417;-71
2022/01/30 08:43:12;;;;;;;0.63;0.63;;;;;;;7.04;75.34;99926.63;5034884;28;20026;-71
2022/01/30 08:45:37;;;;;;;1.50;1.40;;;;;;;6.65;76.72;99926.03;5034793;28;20022;-71
2022/01/30 08:48:02;;;;;;;6.35;1.90;;;;;;;6.46;77.71;99924.00;5034514;28;20025;-71
2022/01/30 08:50:28;;;;;;;0.40;0.40;;;;;;;6.05;77.21;99936.13;5034658;28;20435;-71
2022/01/30 08:52:53;;;;;;;10.13;1.40;;;;;;;5.89;78.58;99929.78;5034877;28;20026;-71
2022/01/30 08:55:19;;;;;;;4.50;1.23;;;;;;;5.70;79.40;99923.41;5034724;28;20032;-71
2022/01/30 08:57:45;;;;;;;14.32;1.70;;;;;;;5.83;78.94;99917.66;5034483;28;20025;-71
2022/01/30 09:00:15;;;;;;;0.60;0.60;;;;;;;6.48;75.11;99922.31;5034404;28;20100;-71
2022/01/30 09:02:41;;;;;;;0.50;0.50;;;;;;;6.05;74.54;99915.56;5050290;28;20481;-71
2022/01/30 09:05:08;;;;;;;0.52;0.52;;;;;;;6.93;71.46;99931.63;5042847;28;20051;-71
2022/01/30 09:07:34;;;;;;;0.50;0.50;;;;;;;6.88;69.75;99928.97;5034311;28;20026;-71
2022/01/30 09:10:00;;;;;;;0.50;0.50;;;;;;;7.28;67.95;99929.53;5034586;28;20022;-71
2022/01/30 09:12:25;;;;;;;1.17;1.17;;;;;;;8.85;62.26;99932.09;5034331;28;20387;-71
2022/01/30 09:14:51;;;;;;;2.75;1.95;;;;;;;9.16;59.32;99925.44;5034270;28;20104;-71
2022/01/30 09:17:17;;;;;;;1.95;1.23;;;;;;;9.93;57.48;99926.66;5034097;28;20045;-71
2022/01/30 09:19:45;;;;;;;1.23;1.23;;;;;;;9.13;59.44;99928.84;5034390;28;20069;-71
2022/01/30 09:22:13;;;;;;;0.93;0.93;;;;;;;9.53;56.41;99940.31;5033792;28;20112;-71
2022/01/30 09:24:39;;;;;;;0.68;0.68;;;;;;;9.35;56.46;99945.38;5034126;28;20036;-71
2022/01/30 09:27:06;;;;;;;2.45;2.25;;;;;;;7.80;60.10;99953.44;5034025;28;20029;-71
2022/01/30 09:29:32;;;;;;;0.85;0.85;;;;;;;7.22;60.95;99960.41;5033926;28;20433;-70
2022/01/30 09:31:58;;;;;;;2.03;1.35;;;;;;;6.75;63.58;99965.69;5044905;28;20116;-70
2022/01/30 09:34:24;;;;;;;0.50;0.50;;;;;;;6.27;66.46;99979.41;5045488;28;20112;-70
2022/01/30 09:36:49;;;;;;;0.95;0.93;;;;;;;6.25;66.78;99981.13;5035055;28;20116;-70
2022/01/30 09:39:15;;;;;;;1.17;1.08;;;;;;;6.16;66.50;99986.06;5033888;28;20528;-70
2022/01/30 09:41:42;;;;;;;2.17;1.48;;;;;;;7.71;59.69;99972.25;5033885;28;20041;-69
2022/01/30 09:44:09;;;;;;;1.23;1.17;;;;;;;6.83;61.95;99983.84;5033680;28;20037;-70
2022/01/30 09:46:37;;;;;;;0.70;0.70;;;;;;;8.80;56.24;99991.53;5033687;28;20033;-70
2022/01/30 09:49:03;;;;;;;8.50;0.85;;;;;;;8.43;56.21;99975.69;5033624;28;20026;-70
2022/01/30 09:51:30;;;;;;;1.73;0.60;;;;;;;10.01;53.52;99961.22;5033646;28;20034;-70
2022/01/30 09:53:55;;;;;;;0.50;0.50;;;;;;;10.99;50.45;99962.25;5033736;28;20021;-70
2022/01/30 09:56:20;;;;;;;3.25;1.17;;;;;;;11.36;48.61;99954.38;5033376;28;20492;-70
2022/01/30 09:58:46;;;;;;;4.03;1.60;;;;;;;8.98;54.59;99981.31;5033486;28;20025;-69
2022/01/30 10:01:11;;;;;;;6.85;1.83;;;;;;;8.11;58.87;99983.03;5038037;28;20029;-70
2022/01/30 10:03:37;;;;;;;2.83;1.67;;;;;;;7.09;60.23;99994.56;5036664;28;20033;-69
2022/01/30 10:06:12;;;;;;;0.50;0.50;;;;;;;6.78;63.24;99996.66;5053092;28;20115;-70
2022/01/30 10:08:43;;;;;;;0.70;0.70;;;;;;;6.59;63.62;100003.19;5053462;28;20036;-70
2022/01/30 10:14:10;;;;;;;0.50;0.50;;;;;;;6.10;66.87;100014.28;5053483;28;20166;-74
2022/01/30 10:16:48;;;;;;;0.68;0.68;;;;;;;6.02;66.60;100016.69;5053112;28;20117;-70
2022/01/30 10:19:21;;;;;;;1.75;1.35;;;;;;;5.99;66.74;100019.16;5053137;28;20024;-70
2022/01/30 10:21:48;;;;;;;1.50;1.48;;;;;;;5.60;69.00;100019.16;5052840;28;20107;-69
2022/01/30 10:24:21;;;;;;;1.27;1.15;;;;;;;5.73;71.07;100026.31;5052886;28;20025;-69
2022/01/30 10:26:46;;;;;;;0.98;0.98;;;;;;;5.92;72.04;100031.06;5052622;28;20112;-69
2022/01/30 10:29:30;;;;;;;1.38;1.20;;;;;;;5.99;72.31;100023.47;5052756;28;20546;-69
2022/01/30 10:31:59;;;;;;;2.10;1.67;;;;;;;6.31;71.32;100019.81;5046062;28;20086;-69
2022/01/30 10:34:26;;;;;;;1.55;1.40;;;;;;;6.45;72.35;100022.66;5040146;28;20075;-69
2022/01/30 10:37:22;;;;;;;0.65;0.65;;;;;;;6.68;70.53;100012.78;5032873;28;20045;-70
2022/01/30 10:39:56;;;;;;;3.22;1.75;;;;;;;6.67;65.96;100022.22;5032715;28;20026;-70
2022/01/30 10:42:31;;;;;;;1.05;0.95;;;;;;;6.55;64.42;100021.13;5032430;28;20033;-70
2022/01/30 10:44:57;;;;;;;5.78;1.05;;;;;;;6.47;64.18;100014.97;5032618;28;20025;-70
2022/01/30 10:47:22;;;;;;;0.60;0.60;;;;;;;6.30;66.13;100020.66;5032414;28;20190;-70
2022/01/30 10:49:48;;;;;;;0.88;0.88;;;;;;;6.26;66.98;100018.88;5032619;28;20018;-69
2022/01/30 10:52:14;;;;;;;1.33;1.25;;;;;;;6.50;67.62;100009.88;5032498;28;20398;-70
2022/01/30 10:54:41;;;;;;;5.95;1.13;;;;;;;6.71;67.14;100010.25;5032439;28;20040;-69
2022/01/30 10:57:09;;;;;;;0.85;0.80;;;;;;;8.12;62.81;100001.97;5032103;28;20029;-69
2022/01/30 10:59:38;;;;;;;1.10;0.98;;;;;;;7.55;62.84;99996.13;5032609;28;20041;-69
2022/01/30 11:02:17;;;;;;;;;;;;;;;8.30;60.54;99988.41;5044551;28;20025;-69
2022/01/30 11:04:44;;;;;;;0.73;0.73;;;;;;;9.38;57.57;99981.63;5043948;28;20050;-69
2022/01/30 11:07:09;;;;;;;0.90;0.90;;;;;;;11.46;49.74;99976.00;5052121;28;20086;-69
2022/01/30 11:09:40;;;;;;;0.47;0.47;;;;;;;12.30;46.03;99978.31;5051928;28;20099;-70
2022/01/30 11:12:18;;;;;;;2.10;0.63;;;;;;;11.93;45.77;99977.63;5052292;28;20029;-69
2022/01/30 11:17:15;;;;;;;1.30;0.50;;;;;;;12.71;42.13;99977.16;4993091;28;20022;-69
2022/01/30 11:19:43;;;;;;;0.68;0.68;;;;;;;12.12;44.73;99991.38;4992794;28;20124;-69
2022/01/30 11:22:10;;;;;;;2.83;1.40;;;;;;;12.72;42.15;99986.72;4992596;28;20480;-69
2022/01/30 11:25:07;;;;;;;2.10;0.63;;;;;;;9.66;49.38;99999.88;4992642;28;20037;-69
2022/01/30 11:27:33;;;;;;;3.05;0.70;;;;;;;8.67;51.78;100010.34;4989218;28;20169;-69
2022/01/30 11:30:00;;;;;;;2.78;1.05;;;;;;;8.65;52.18;99996.53;4992554;28;20491;-69
2022/01/30 11:32:27;;;;;;;2.10;1.85;;;;;;;9.74;49.91;99982.66;4988536;28;20037;-69
2022/01/30 11:34:54;;;;;;;2.08;0.75;;;;;;;11.13;46.09;99977.81;4984321;28;20084;-69
2022/01/30 11:37:22;;;;;;;3.35;0.75;;;;;;;10.25;48.27;99975.97;4992439;28;20500;-69
2022/01/30 11:39:51;;;;;;;2.88;0.88;;;;;;;11.14;46.98;99963.09;4992486;28;20034;-69
2022/01/30 11:42:18;;;;;;;1.87;0.97;;;;;;;10.83;46.76;99968.31;4992520;28;20041;-69
2022/01/30 11:44:45;;;;;;;1.35;1.17;;;;;;;10.78;47.39;99963.13;4992466;28;20030;-69
2022/01/30 11:47:10;;;;;;;0.95;0.65;;;;;;;10.64;47.37;99956.19;4996302;28;20479;-69
2022/01/30 11:49:41;;;;;;;0.75;0.75;;;;;;;10.04;49.66;99959.50;4996422;28;20033;-69
2022/01/30 11:52:10;;;;;;;0.50;0.50;;;;;;;9.93;51.11;99961.19;4996460;28;20040;-69
2022/01/30 11:54:41;;;;;;;3.03;0.88;;;;;;;9.01;52.59;99964.97;4996278;28;20022;-69
2022/01/30 11:57:21;;;;;;;1.10;1.10;;;;;;;8.67;53.75;99959.53;4996325;28;20116;-69
2022/01/30 11:59:48;;;;;;;0.75;0.50;;;;;;;8.45;55.46;99966.22;4996202;28;20045;-70
2022/01/30 12:02:46;;;;;;;0.77;0.77;;;;;;;7.83;57.59;99961.22;4992568;28;20030;-69
2022/01/30 12:05:11;;;;;;;2.55;1.77;;;;;;;8.28;57.58;99960.00;4982300;28;20042;-69
2022/01/30 12:07:37;;;;;;;1.95;1.50;;;;;;;9.13;54.09;99964.19;4996144;28;20064;-69
2022/01/30 12:10:21;;;;;;;0.50;0.50;;;;;;;8.14;56.97;99956.41;4995994;28;20023;-69
2022/01/30 12:13:03;;;;;;;6.18;1.25;;;;;;;7.99;57.23;99947.66;4996126;28;20541;-69
2022/01/30 12:15:38;;;;;;;1.23;1.15;;;;;;;7.47;58.92;99947.00;4996061;28;20026;-69
2022/01/30 12:18:11;;;;;;;0.50;0.50;;;;;;;7.32;59.76;99939.06;4995979;28;20030;-69
2022/01/30 12:20:59;;;;;;;0.70;0.70;;;;;;;7.04;60.94;99945.53;4995747;28;20430;-69
2022/01/30 12:23:27;;;;;;;5.68;1.08;;;;;;;7.17;61.31;99946.59;4996096;28;20030;-69
2022/01/30 12:25:54;;;;;;;2.05;0.70;;;;;;;7.30;61.32;99943.34;4995773;28;20041;-70
2022/01/30 12:28:19;;;;;;;1.35;1.25;;;;;;;7.43;60.77;99945.22;4995944;28;20037;-69
2022/01/30 12:30:47;;;;;;;1.17;1.15;;;;;;;7.66;59.88;99942.09;4991668;28;20098;-69
2022/01/30 12:33:36;;;;;;;0.77;0.77;;;;;;;7.67;60.24;99943.81;4982842;28;20027;-69
2022/01/30 12:36:09;;;;;;;0.80;0.80;;;;;;;8.44;58.38;99951.56;4995485;28;20027;-69
2022/01/30 12:38:35;;;;;;;0.90;0.90;;;;;;;8.46;57.18;99952.47;4995700;28;20026;-69
2022/01/30 12:41:13;;;;;;;1.00;0.98;;;;;;;7.97;58.77;99954.47;4995594;28;20031;-69
2022/01/30 12:43:38;;;;;;;0.70;0.70;;;;;;;8.62;57.26;99939.69;4995835;28;20073;-69
2022/01/30 12:46:05;;;;;;;3.45;0.77;;;;;;;8.10;58.15;99952.91;4995422;28;20042;-69
2022/01/30 12:48:30;;;;;;;1.85;1.15;;;;;;;7.67;58.63;99948.97;4995585;28;20113;-71
2022/01/30 12:51:02;;;;;;;0.70;0.70;;;;;;;7.58;58.11;99951.44;4995431;28;20105;-69
2022/01/30 12:53:28;;;;;;;2.75;1.58;;;;;;;7.29;58.49;99945.88;4995359;28;20488;-69
2022/01/30 12:55:53;;;;;;;0.65;0.65;;;;;;;7.35;58.57;99946.84;4995203;28;20113;-69
2022/01/30 12:58:20;;;;;;;0.43;0.43;;;;;;;7.40;58.58;99945.19;4994631;28;20479;-70
2022/01/30 13:00:45;;;;;;;0.70;0.70;;;;;;;7.28;58.78;99942.44;4991399;28;20031;-70
2022/01/30 13:03:18;;;;;;;0.50;0.50;;;;;;;7.18;59.04;99943.16;4982341;28;20030;-70
2022/01/30 13:05:44;;;;;;;0.60;0.60;;;;;;;7.06;59.38;99937.81;4992641;28;20097;-70
2022/01/30 13:08:09;;;;;;;2.00;1.73;;;;;;;6.97;59.26;99940.28;4994907;28;20535;-70
2022/01/30 13:10:35;;;;;;;8.68;1.45;;;;;;;6.92;59.65;99946.22;4994869;28;20097;-70
2022/01/30 13:13:03;;;;;;;0.95;0.95;;;;;;;6.78;60.06;99950.28;4994912;28;20029;-70
2022/01/30 13:15:32;;;;;;;1.15;1.13;;;;;;;6.87;58.62;99945.28;4995134;28;20030;-70
2022/01/30 13:18:00;;;;;;;0.95;0.90;;;;;;;6.79;59.05;99933.97;4994845;28;20105;-69
2022/01/30 13:20:27;;;;;;;0.50;0.50;;;;;;;6.84;56.92;99936.63;4994839;28;20054;-70
2022/01/30 13:22:53;;;;;;;0.40;0.40;;;;;;;7.01;56.35;99927.47;4994801;28;20030;-70
2022/01/30 13:25:19;;;;;;;0.68;0.68;;;;;;;7.26;55.81;99936.41;4994733;28;20026;-70
2022/01/30 13:27:50;;;;;;;0.98;0.98;;;;;;;7.19;55.99;99930.28;4994633;28;20027;-70
2022/01/30 13:30:24;;;;;;;0.60;0.60;;;;;;;7.75;54.02;99926.72;4993605;28;20328;-70
2022/01/30 13:32:51;;;;;;;1.33;0.70;;;;;;;7.79;54.04;99920.75;4983153;28;20109;-69
2022/01/30 13:35:20;;;;;;;0.90;0.90;;;;;;;8.17;53.38;99915.13;4988284;28;20030;-70
2022/01/30 13:37:46;;;;;;;0.65;0.65;;;;;;;8.13;52.62;99913.38;4994204;28;20553;-70
2022/01/30 13:40:26;;;;;;;1.08;1.08;;;;;;;8.66;52.01;99913.03;4994606;28;20028;-70
2022/01/30 13:42:55;;;;;;;0.95;0.80;;;;;;;9.01;51.66;99903.81;4994688;28;20037;-70
2022/01/30 13:47:59;;;;;;;0.60;0.60;;;;;;;7.98;52.48;99920.13;4994305;28;20026;-69
2022/01/30 13:50:43;;;;;;;0.73;0.73;;;;;;;7.81;52.33;99921.63;4994145;28;20026;-69
2022/01/30 13:53:17;;;;;;;0.65;0.65;;;;;;;7.62;52.83;99919.69;4994325;28;20037;-69
2022/01/30 13:56:06;;;;;;;0.70;0.70;;;;;;;7.24;55.23;99912.31;4993969;28;20100;-69
2022/01/30 13:58:41;;;;;;;2.08;1.98;;;;;;;7.10;55.48;99912.09;4994173;28;20113;-70
2022/01/30 14:01:30;;;;;;;3.42;1.80;;;;;;;7.09;56.91;99901.78;4980870;28;20022;-69
2022/01/30 14:04:05;;;;;;;4.32;1.05;;;;;;;7.00;56.08;99906.81;4977873;28;20031;-69
2022/01/30 14:06:33;;;;;;;0.50;0.50;;;;;;;6.95;57.03;99920.47;4993739;28;20030;-69
2022/01/30 14:09:01;;;;;;;0.60;0.60;;;;;;;6.81;57.25;99921.97;4992809;28;20034;-69
2022/01/30 14:11:38;;;;;;;0.55;0.55;;;;;;;6.73;56.27;99918.44;4994150;28;20062;-69
2022/01/30 14:14:09;;;;;;;0.70;0.70;;;;;;;7.00;55.57;99917.09;4993996;28;20038;-69
2022/01/30 14:17:01;;;;;;;2.13;1.15;;;;;;;7.46;55.15;99914.31;5000181;23;20054;-78
2022/01/30 14:19:30;;;;;;;4.03;1.17;;;;;;;7.55;52.81;99917.88;4974120;28;20038;-78
2022/01/30 14:22:25;;;;;;;1.23;1.23;;;;;;;7.40;53.43;99914.25;4974585;28;20038;-78
2022/01/30 14:24:57;;;;;;;0.50;0.50;;;;;;;7.12;54.32;99917.31;4977360;28;20030;-78
2022/01/30 14:27:24;;;;;;;1.10;0.82;;;;;;;7.10;54.16;99914.69;4993624;28;20029;-78
2022/01/30 14:29:59;;;;;;;0.60;0.60;;;;;;;6.92;55.88;99924.75;4993398;28;20037;-78
2022/01/30 14:32:30;;;;;;;2.13;1.42;;;;;;;6.87;56.49;99932.41;5000257;28;20026;-78
2022/01/30 14:34:55;;;;;;;2.75;2.45;;;;;;;6.68;57.15;99925.22;5003839;28;20466;-78
2022/01/30 14:37:21;;;;;;;0.63;0.52;;;;;;;6.73;56.99;99918.44;5012901;28;20049;-78
2022/01/30 14:39:55;;;;;;;1.42;1.33;;;;;;;6.73;57.33;99913.28;5013006;28;20018;-78
2022/01/30 14:42:21;;;;;;;0.65;0.65;;;;;;;6.69;58.20;99911.50;5013082;28;20034;-78
2022/01/30 14:44:46;;;;;;;0.93;0.93;;;;;;;6.65;57.98;99905.44;5012821;28;20076;-76
2022/01/30 14:47:12;;;;;;;1.75;0.88;;;;;;;6.47;56.71;99910.28;5012781;28;20032;-76
2022/01/30 14:49:38;;;;;;;1.75;1.05;;;;;;;6.66;57.52;99906.28;5012746;28;20045;-76
2022/01/30 14:52:06;;;;;;;0.95;0.80;;;;;;;6.70;57.07;99908.06;5012873;28;20475;-76
2022/01/30 14:54:31;;;;;;;0.60;0.60;;;;;;;6.71;56.37;99920.09;5012622;28;20113;-76
2022/01/30 14:56:57;;;;;;;0.65;0.57;;;;;;;6.69;56.94;99911.50;5012682;28;20392;-76
2022/01/30 14:59:22;;;;;;;0.70;0.70;;;;;;;6.74;56.39;99909.88;5012751;28;20486;-76
2022/01/30 15:01:48;;;;;;;0.80;0.80;;;;;;;6.65;57.66;99915.72;5007136;28;20029;-76
2022/01/30 15:04:13;;;;;;;9.02;4.85;;;;;;;6.55;57.55;99897.53;4997712;28;20155;-76
2022/01/30 15:06:39;;;;;;;3.72;0.73;;;;;;;6.43;57.60;99909.38;5012265;28;20112;-76
2022/01/30 15:09:05;;;;;;;3.17;0.90;;;;;;;6.21;58.25;99909.84;5012437;28;20057;-75
2022/01/30 15:11:31;;;;;;;19.60;1.75;;;;;;;6.19;58.22;99898.66;5012501;28;20585;-75
2022/01/30 15:13:56;;;;;;;0.90;0.90;;;;;;;6.06;58.66;99896.69;5012436;28;20045;-75
2022/01/30 15:16:39;;;;;;;0.75;0.75;;;;;;;6.01;59.16;99894.03;5012080;28;20116;-71
2022/01/30 15:19:06;;;;;;;1.05;0.98;;;;;;;6.16;58.64;99888.31;5011618;28;20529;-74
2022/01/30 15:21:32;;;;;;;0.80;0.80;;;;;;;6.14;58.97;99879.66;5012042;28;20072;-77
2022/01/30 15:23:57;;;;;;;1.42;1.30;;;;;;;6.10;58.44;99878.78;5012380;28;20560;-78
2022/01/30 15:26:22;;;;;;;0.73;0.73;;;;;;;6.19;59.06;99867.78;5012136;28;20018;-78
2022/01/30 15:28:51;;;;;;;1.88;0.93;;;;;;;6.18;59.06;99876.31;5012324;28;20061;-78
2022/01/30 15:31:18;;;;;;;1.33;1.27;;;;;;;6.31;59.79;99873.13;5008334;28;20129;-78
2022/01/30 15:33:44;;;;;;;1.70;1.02;;;;;;;6.21;60.08;99878.94;4995616;28;20102;-78
2022/01/30 15:36:10;;;;;;;0.95;0.95;;;;;;;6.18;59.92;99886.59;5011941;28;20109;-78
2022/01/30 15:38:36;;;;;;;1.45;1.17;;;;;;;6.15;59.66;99891.72;5012141;28;20030;-78
2022/01/30 15:41:02;;;;;;;1.27;0.90;;;;;;;6.20;59.79;99884.94;5012180;28;20022;-78
2022/01/30 15:43:27;;;;;;;3.13;0.90;;;;;;;6.23;60.21;99874.69;5012239;28;20029;-78
2022/01/30 15:51:40;;;;;;;0.65;0.65;;;;;;;5.75;60.64;99859.22;4970745;28;20412;-75
2022/01/30 15:54:07;;;;;;;0.85;0.85;;;;;;;5.73;61.06;99846.34;5003842;28;20407;-74
2022/01/30 15:56:33;;;;;;;6.60;1.30;;;;;;;5.56;60.63;99843.47;5011820;28;20426;-78
2022/01/30 15:58:59;;;;;;;1.85;1.17;;;;;;;5.60;60.50;99846.94;5012019;28;20025;-74
2022/01/30 16:01:27;;;;;;;1.20;1.10;;;;;;;5.62;61.06;99850.41;5007893;28;20030;-77
2022/01/30 16:03:52;;;;;;;0.68;0.68;;;;;;;5.61;61.00;99856.41;4995602;28;20018;-78
2022/01/30 16:06:18;;;;;;;1.02;1.02;;;;;;;5.61;61.20;99856.41;5011826;28;20029;-78
2022/01/30 16:08:50;;;;;;;0.80;0.80;;;;;;;5.68;61.54;99860.81;5011919;28;20049;-76
2022/01/30 16:16:25;;;;;;;1.17;1.17;;;;;;;5.36;62.52;99863.59;5011682;28;20111;-76
2022/01/30 16:18:50;;;;;;;1.88;1.13;;;;;;;5.25;62.98;99861.66;5011909;28;20061;-76
2022/01/30 16:21:15;;;;;;;3.17;1.73;;;;;;;5.11;63.54;99853.66;5011914;28;20020;-76
2022/01/30 16:23:41;;;;;;;2.85;1.50;;;;;;;5.06;63.75;99857.81;5011882;28;20022;-75
2022/01/30 16:26:06;;;;;;;1.40;1.30;;;;;;;4.98;63.83;99851.66;5011519;28;20117;-78
2022/01/30 16:28:31;;;;;;;14.57;3.70;;;;;;;4.76;64.08;99856.31;5011829;28;20030;-77
2022/01/30 16:30:57;;;;;;;3.25;2.88;;;;;;;4.76;64.53;99868.28;5007591;28;20022;-74
2022/01/30 16:33:22;;;;;;;3.78;3.47;;;;;;;4.64;64.89;99874.88;4999834;28;20475;-74
2022/01/30 16:35:47;;;;;;;2.00;1.83;;;;;;;4.83;65.67;99867.59;5012959;28;20025;-78
2022/01/30 16:38:13;;;;;;;4.13;2.50;;;;;;;4.75;64.13;99871.69;5015378;28;20105;-75
2022/01/30 16:40:40;;;;;;;1.27;1.13;;;;;;;4.72;65.12;99863.91;5015283;28;20017;-76
2022/01/30 16:43:11;;;;;;;0.70;0.70;;;;;;;5.00;64.54;99873.97;5015448;28;20110;-74
2022/01/30 16:45:45;;;;;;;1.20;1.15;;;;;;;4.99;64.86;99879.09;5015129;28;20588;-69
2022/01/30 16:48:16;;;;;;;0.70;0.70;;;;;;;4.78;64.85;99880.31;5015180;28;20021;-78
2022/01/30 16:50:41;;;;;;;0.60;0.60;;;;;;;4.88;64.57;99872.03;5015147;28;20030;-75
2022/01/30 16:53:06;;;;;;;2.25;1.30;;;;;;;4.79;65.04;99866.66;5015051;28;20108;-75
2022/01/30 16:55:34;;;;;;;0.80;0.80;;;;;;;4.61;65.80;99871.38;5013624;28;20034;-74
2022/01/30 16:57:59;;;;;;;0.63;0.63;;;;;;;4.58;66.18;99871.28;5014717;28;20097;-70
2022/01/30 17:00:25;;;;;;;2.20;1.83;;;;;;;4.50;66.56;99868.56;5012817;28;20041;-74
2022/01/30 17:02:51;;;;;;;0.90;0.90;;;;;;;4.67;65.38;99860.38;5003031;28;20426;-78
2022/01/30 17:05:17;;;;;;;5.03;2.42;;;;;;;4.63;65.83;99862.88;5008485;28;20025;-77
2022/01/30 17:07:45;;;;;;;1.08;1.00;;;;;;;4.47;66.65;99867.59;5014491;28;20483;-77
2022/01/30 17:10:15;;;;;;;1.95;1.70;;;;;;;4.36;67.31;99868.22;5014537;28;20037;-77
2022/01/30 17:12:58;;;;;;;;;;;;;;;4.28;68.88;99876.56;5015210;28;20026;-77
2022/01/30 17:15:34;;;;;;;2.42;1.40;;;;;;;4.25;68.18;99872.19;5014464;28;19913;-76
2022/01/30 17:17:59;;;;;;;1.23;1.23;;;;;;;4.22;68.30;99872.16;5014358;28;20131;-78
2022/01/30 17:20:25;;;;;;;3.17;2.55;;;;;;;4.22;67.70;99871.28;5014578;28;20033;-77
2022/01/30 17:22:50;;;;;;;5.07;1.15;;;;;;;4.24;68.11;99870.47;5014472;28;20036;-75
2022/01/30 17:25:16;;;;;;;3.38;2.67;;;;;;;4.23;67.13;99863.63;5014403;28;20033;-77
2022/01/30 17:27:41;;;;;;;1.17;1.17;;;;;;;4.10;67.47;99867.56;5014203;28;20466;-75
2022/01/30 17:30:07;;;;;;;1.17;1.17;;;;;;;4.20;67.26;99850.69;5014272;28;20108;-78
2022/01/30 17:32:32;;;;;;;0.82;0.73;;;;;;;4.20;68.04;99863.53;5002638;28;20018;-78
2022/01/30 17:34:58;;;;;;;1.13;1.00;;;;;;;4.12;68.29;99854.78;5005246;28;20030;-77
2022/01/30 17:37:25;;;;;;;1.95;1.20;;;;;;;4.06;68.75;99859.75;5014098;28;20017;-76
2022/01/30 17:39:51;;;;;;;0.85;0.85;;;;;;;3.93;69.29;99857.72;5014142;28;20028;-77
2022/01/30 17:42:16;;;;;;;1.73;1.30;;;;;;;3.91;69.39;99849.09;5014093;28;20025;-76
2022/01/30 17:44:41;;;;;;;0.68;0.68;;;;;;;3.83;68.71;99846.34;5013720;28;20022;-76
2022/01/30 17:47:07;;;;;;;0.80;0.80;;;;;;;3.91;68.55;99849.09;5013995;28;20026;-76
2022/01/30 17:49:32;;;;;;;0.90;0.90;;;;;;;3.82;69.36;99855.75;5013902;28;20372;-76
2022/01/30 17:51:58;;;;;;;3.05;2.75;;;;;;;3.89;69.26;99845.63;5013947;28;20032;-76
2022/01/30 17:54:28;;;;;;;1.40;1.30;;;;;;;3.80;69.81;99847.13;5013800;28;20026;-76
2022/01/30 17:56:53;;;;;;;1.33;1.23;;;;;;;3.72;70.63;99842.63;5013766;28;20061;-76
2022/01/30 17:59:19;;;;;;;1.10;1.05;;;;;;;3.62;70.72;99846.63;5013893;28;20072;-76
2022/01/30 18:01:44;;;;;;;3.35;2.38;;;;;;;3.45;71.18;99838.50;5008745;28;20064;-76
2022/01/30 18:04:10;;;;;;;1.88;1.23;;;;;;;3.49;70.72;99831.78;4998192;28;20062;-76
2022/01/30 18:06:35;;;;;;;1.35;1.30;;;;;;;3.64;71.49;99829.63;5013427;28;20072;-75
2022/01/30 18:09:01;;;;;;;2.45;1.50;;;;;;;3.67;72.01;99839.06;5013697;28;20033;-76
2022/01/30 18:11:29;;;;;;;1.17;1.02;;;;;;;3.59;72.32;99841.44;5013600;28;20056;-76
2022/01/30 18:13:55;;;;;;;1.08;1.08;;;;;;;3.56;73.13;99838.78;5013603;28;20071;-76
2022/01/30 18:16:21;;;;;;;7.82;1.67;;;;;;;3.42;72.58;99829.84;5013148;28;20029;-76
2022/01/30 18:18:46;;;;;;;1.13;1.13;;;;;;;3.32;72.77;99829.59;5013433;28;20104;-75
2022/01/30 18:21:12;;;;;;;6.82;2.22;;;;;;;3.51;74.03;99824.97;5013381;28;20423;-75
2022/01/30 18:23:37;;;;;;;2.72;2.05;;;;;;;3.43;73.47;99839.28;5013325;28;20080;-75
2022/01/30 18:26:03;;;;;;;1.48;1.48;;;;;;;3.23;73.20;99828.47;5013185;28;20029;-78
2022/01/30 18:28:28;;;;;;;0.82;0.82;;;;;;;3.16;72.96;99839.38;5013216;28;20033;-75
2022/01/30 18:30:54;;;;;;;1.48;1.38;;;;;;;3.06;74.32;99828.00;5009282;28;20030;-77
2022/01/30 18:33:21;;;;;;;4.18;1.38;;;;;;;3.07;73.94;99827.19;4999120;28;20026;-77
2022/01/30 18:35:47;;;;;;;1.65;1.25;;;;;;;3.04;74.89;99830.50;5010747;28;20786;-78
2022/01/30 18:38:40;;;;;;;2.42;1.73;;;;;;;3.00;75.49;99828.69;5013044;28;20037;-77
2022/01/30 18:41:05;;;;;;;2.83;2.35;;;;;;;2.86;74.89;99811.22;5012980;28;20479;-75
2022/01/30 18:43:35;;;;;;;0.82;0.82;;;;;;;2.63;75.34;99806.25;5013078;28;20029;-78
2022/01/30 18:46:01;;;;;;;;;;;;;;;2.58;75.96;99800.13;5013162;28;20026;-78
2022/01/30 18:48:26;;;;;;;0.80;0.80;;;;;;;2.48;76.46;99809.22;5012995;28;20382;-78
2022/01/30 18:50:52;;;;;;;2.25;2.05;;;;;;;2.41;77.05;99809.84;5012874;28;20034;-77
2022/01/30 18:53:19;;;;;;;1.55;1.45;;;;;;;2.39;76.89;99802.94;5012904;28;20026;-78
2022/01/30 18:55:44;;;;;;;3.15;1.92;;;;;;;2.29;77.53;99804.34;5012021;28;20055;-77
2022/01/30 18:58:12;;;;;;;1.45;1.35;;;;;;;2.11;77.99;99789.28;5012810;28;20026;-78
2022/01/30 19:00:37;;;;;;;2.00;1.60;;;;;;;2.16;78.44;99790.28;5008697;28;20472;-77
2022/01/30 19:03:03;;;;;;;6.00;3.20;;;;;;;2.16;78.36;99797.97;4985212;28;20026;-77
2022/01/30 19:05:28;;;;;;;2.20;2.10;;;;;;;2.17;78.75;99786.91;5007892;28;20077;-76
2022/01/30 19:07:53;;;;;;;1.75;1.65;;;;;;;1.93;79.49;99783.56;5012709;28;20389;-78
2022/01/30 19:10:20;;;;;;;5.05;2.45;;;;;;;1.83;79.75;99781.53;5012527;28;20018;-77
2022/01/30 19:12:45;;;;;;;3.08;2.25;;;;;;;1.94;80.96;99780.22;5012635;28;20053;-76